sensor_id;sensor_type;location;lat;lon;timestamp;pressure;altitude;pressure_sealevel;temperature;humidity
27958;BME280;15295;42.658;23.374;2024-01-15T00:01:55;93987.59;;;4.29;43.72
27958;BME280;15295;42.658;23.374;2024-01-15T00:04:21;93988.72;;;4.25;43.92
27958;BME280;15295;42.658;23.374;2024-01-15T00:06:55;93976.72;;;4.26;43.86
27958;BME280;15295;42.658;23.374;2024-01-15T00:09:21;93983.69;;;4.23;43.82
27958;BME280;15295;42.658;23.374;2024-01-15T00:11:47;93992.94;;;4.26;44.01
27958;BME280;15295;42.658;23.374;2024-01-15T00:14:12;93977.41;;;4.16;44.10
27958;BME280;15295;42.658;23.374;2024-01-15T00:16:40;93983.19;;;4.14;44.08
27958;BME280;15295;42.658;23.374;2024-01-15T00:19:06;93982.44;;;4.17;43.90
27958;BME280;15295;42.658;23.374;2024-01-15T00:21:32;93983.44;;;4.02;44.15
27958;BME280;15295;42.658;23.374;2024-01-15T00:23:57;93984.56;;;3.98;43.93
27958;BME280;15295;42.658;23.374;2024-01-15T00:26:23;93982.22;;;3.96;44.23
27958;BME280;15295;42.658;23.374;2024-01-15T00:28:49;93987.56;;;3.89;44.32
27958;BME280;15295;42.658;23.374;2024-01-15T00:31:16;93973.19;;;3.85;44.57
27958;BME280;15295;42.658;23.374;2024-01-15T00:33:42;93990.56;;;3.84;44.59
27958;BME280;15295;42.658;23.374;2024-01-15T00:36:08;93974.25;;;3.73;44.47
27958;BME280;15295;42.658;23.374;2024-01-15T00:38:33;93988.94;;;3.76;44.75
27958;BME280;15295;42.658;23.374;2024-01-15T00:40:59;93983.13;;;3.74;44.97
27958;BME280;15295;42.658;23.374;2024-01-15T00:43:24;93990.94;;;3.82;44.93
27958;BME280;15295;42.658;23.374;2024-01-15T00:45:50;93976.63;;;3.78;44.95
27958;BME280;15295;42.658;23.374;2024-01-15T00:48:17;93982.03;;;3.78;45.18
27958;BME280;15295;42.658;23.374;2024-01-15T00:50:43;93982.78;;;3.79;45.11
27958;BME280;15295;42.658;23.374;2024-01-15T00:53:09;93981.97;;;3.75;45.32
27958;BME280;15295;42.658;23.374;2024-01-15T00:55:34;93982.38;;;3.77;45.62
27958;BME280;15295;42.658;23.374;2024-01-15T00:57:59;93967.25;;;3.72;45.46
27958;BME280;15295;42.658;23.374;2024-01-15T01:00:25;93983.97;;;3.81;45.38
27958;BME280;15295;42.658;23.374;2024-01-15T01:02:50;93989.00;;;3.83;45.53
27958;BME280;15295;42.658;23.374;2024-01-15T01:05:16;93980.78;;;3.72;45.69
27958;BME280;15295;42.658;23.374;2024-01-15T01:07:42;93988.53;;;3.74;45.53
27958;BME280;15295;42.658;23.374;2024-01-15T01:10:07;93971.84;;;3.68;45.72
27958;BME280;15295;42.658;23.374;2024-01-15T01:12:33;93975.34;;;3.69;45.79
27958;BME280;15295;42.658;23.374;2024-01-15T01:14:58;93964.03;;;3.60;45.55
27958;BME280;15295;42.658;23.374;2024-01-15T01:17:24;93974.94;;;3.67;45.53
27958;BME280;15295;42.658;23.374;2024-01-15T01:19:50;93969.50;;;3.63;45.67
27958;BME280;15295;42.658;23.374;2024-01-15T01:22:15;93977.25;;;3.68;45.66
27958;BME280;15295;42.658;23.374;2024-01-15T01:24:41;93974.50;;;3.61;45.32
27958;BME280;15295;42.658;23.374;2024-01-15T01:27:06;93977.94;;;3.62;45.42
27958;BME280;15295;42.658;23.374;2024-01-15T01:29:32;93968.63;;;3.56;45.62
27958;BME280;15295;42.658;23.374;2024-01-15T01:31:58;93958.69;;;3.63;45.69
27958;BME280;15295;42.658;23.374;2024-01-15T01:34:23;93958.00;;;3.70;45.90
27958;BME280;15295;42.658;23.374;2024-01-15T01:36:49;93953.00;;;3.72;45.51
27958;BME280;15295;42.658;23.374;2024-01-15T01:39:14;93961.09;;;3.72;45.74
27958;BME280;15295;42.658;23.374;2024-01-15T01:41:40;93950.28;;;3.72;45.77
27958;BME280;15295;42.658;23.374;2024-01-15T01:44:06;93946.44;;;3.73;45.79
27958;BME280;15295;42.658;23.374;2024-01-15T01:46:32;93960.03;;;3.80;45.86
27958;BME280;15295;42.658;23.374;2024-01-15T01:49:03;93961.63;;;3.84;45.83
27958;BME280;15295;42.658;23.374;2024-01-15T01:51:31;93958.06;;;3.77;45.82
27958;BME280;15295;42.658;23.374;2024-01-15T01:53:57;93946.91;;;3.78;45.91
27958;BME280;15295;42.658;23.374;2024-01-15T01:56:22;93951.94;;;3.80;45.84
27958;BME280;15295;42.658;23.374;2024-01-15T01:58:48;93954.72;;;3.87;45.68
27958;BME280;15295;42.658;23.374;2024-01-15T02:01:15;93950.03;;;3.84;45.83
27958;BME280;15295;42.658;23.374;2024-01-15T02:03:41;93941.13;;;3.80;45.70
27958;BME280;15295;42.658;23.374;2024-01-15T02:06:08;93928.72;;;3.75;45.85
27958;BME280;15295;42.658;23.374;2024-01-15T02:08:35;93941.44;;;3.75;46.11
27958;BME280;15295;42.658;23.374;2024-01-15T02:11:00;93936.41;;;3.73;46.12
27958;BME280;15295;42.658;23.374;2024-01-15T02:13:26;93926.38;;;3.74;46.07
27958;BME280;15295;42.658;23.374;2024-01-15T02:15:51;93927.13;;;3.71;46.22
27958;BME280;15295;42.658;23.374;2024-01-15T02:18:18;93921.59;;;3.60;46.51
27958;BME280;15295;42.658;23.374;2024-01-15T02:20:43;93920.09;;;3.63;46.29
27958;BME280;15295;42.658;23.374;2024-01-15T02:23:14;93908.13;;;3.64;46.14
27958;BME280;15295;42.658;23.374;2024-01-15T02:25:41;93916.28;;;3.67;45.94
27958;BME280;15295;42.658;23.374;2024-01-15T02:28:15;93901.50;;;3.58;45.99
27958;BME280;15295;42.658;23.374;2024-01-15T02:30:42;93898.47;;;3.63;46.12
27958;BME280;15295;42.658;23.374;2024-01-15T02:33:08;93869.16;;;3.65;45.80
27958;BME280;15295;42.658;23.374;2024-01-15T02:35:34;93866.84;;;3.67;45.83
27958;BME280;15295;42.658;23.374;2024-01-15T02:38:02;93859.97;;;3.73;45.39
27958;BME280;15295;42.658;23.374;2024-01-15T02:40:28;93878.19;;;3.83;45.40
27958;BME280;15295;42.658;23.374;2024-01-15T02:42:53;93887.88;;;3.84;45.34
27958;BME280;15295;42.658;23.374;2024-01-15T02:45:20;93863.16;;;3.82;45.21
27958;BME280;15295;42.658;23.374;2024-01-15T02:47:45;93868.28;;;3.94;45.26
27958;BME280;15295;42.658;23.374;2024-01-15T02:50:11;93863.28;;;3.96;45.00
27958;BME280;15295;42.658;23.374;2024-01-15T02:52:36;93869.13;;;4.02;45.06
27958;BME280;15295;42.658;23.374;2024-01-15T02:55:02;93866.06;;;4.03;44.99
27958;BME280;15295;42.658;23.374;2024-01-15T02:57:28;93863.22;;;3.89;44.77
27958;BME280;15295;42.658;23.374;2024-01-15T02:59:53;93874.38;;;3.84;44.92
27958;BME280;15295;42.658;23.374;2024-01-15T03:02:22;93871.66;;;3.84;44.92
27958;BME280;15295;42.658;23.374;2024-01-15T03:04:48;93870.06;;;3.79;44.86
27958;BME280;15295;42.658;23.374;2024-01-15T03:07:13;93855.38;;;3.77;45.12
27958;BME280;15295;42.658;23.374;2024-01-15T03:09:40;93866.94;;;3.74;45.01
27958;BME280;15295;42.658;23.374;2024-01-15T03:12:06;93859.56;;;3.71;44.71
27958;BME280;15295;42.658;23.374;2024-01-15T03:14:31;93866.06;;;3.63;44.91
27958;BME280;15295;42.658;23.374;2024-01-15T03:16:57;93848.22;;;3.55;44.73
27958;BME280;15295;42.658;23.374;2024-01-15T03:19:25;93855.25;;;3.63;44.78
27958;BME280;15295;42.658;23.374;2024-01-15T03:21:50;93855.19;;;3.59;44.91
27958;BME280;15295;42.658;23.374;2024-01-15T03:24:19;93863.34;;;3.63;45.44
27958;BME280;15295;42.658;23.374;2024-01-15T03:26:44;93860.16;;;3.54;45.50
27958;BME280;15295;42.658;23.374;2024-01-15T03:29:12;93858.28;;;3.58;45.45
27958;BME280;15295;42.658;23.374;2024-01-15T03:31:37;93837.72;;;3.46;45.47
27958;BME280;15295;42.658;23.374;2024-01-15T03:34:03;93841.22;;;3.50;45.79
27958;BME280;15295;42.658;23.374;2024-01-15T03:36:29;93835.06;;;3.53;45.37
27958;BME280;15295;42.658;23.374;2024-01-15T03:38:54;93842.84;;;3.58;45.54
27958;BME280;15295;42.658;23.374;2024-01-15T03:41:21;93821.84;;;3.41;45.63
27958;BME280;15295;42.658;23.374;2024-01-15T03:43:47;93843.06;;;3.43;45.74
27958;BME280;15295;42.658;23.374;2024-01-15T03:46:13;93829.97;;;3.45;45.71
27958;BME280;15295;42.658;23.374;2024-01-15T03:48:38;93843.81;;;3.40;45.88
27958;BME280;15295;42.658;23.374;2024-01-15T03:51:04;93839.06;;;3.30;46.10
27958;BME280;15295;42.658;23.374;2024-01-15T03:53:29;93843.56;;;3.19;46.40
27958;BME280;15295;42.658;23.374;2024-01-15T03:55:55;93840.88;;;3.19;46.37
27958;BME280;15295;42.658;23.374;2024-01-15T03:58:20;93843.59;;;3.22;46.65
27958;BME280;15295;42.658;23.374;2024-01-15T04:00:47;93839.31;;;3.18;46.24
27958;BME280;15295;42.658;23.374;2024-01-15T04:03:13;93849.69;;;3.16;46.41
27958;BME280;15295;42.658;23.374;2024-01-15T04:05:38;93836.09;;;3.08;46.54
27958;BME280;15295;42.658;23.374;2024-01-15T04:08:04;93832.59;;;3.04;46.71
27958;BME280;15295;42.658;23.374;2024-01-15T04:10:31;93835.00;;;3.13;46.68
27958;BME280;15295;42.658;23.374;2024-01-15T04:12:56;93808.72;;;3.06;46.86
27958;BME280;15295;42.658;23.374;2024-01-15T04:15:22;93809.22;;;3.19;46.69
27958;BME280;15295;42.658;23.374;2024-01-15T04:17:47;93832.03;;;3.22;46.80
27958;BME280;15295;42.658;23.374;2024-01-15T04:20:13;93821.25;;;3.25;46.67
27958;BME280;15295;42.658;23.374;2024-01-15T04:22:38;93833.59;;;3.23;46.57
27958;BME280;15295;42.658;23.374;2024-01-15T04:25:04;93820.72;;;3.12;46.39
27958;BME280;15295;42.658;23.374;2024-01-15T04:27:30;93822.28;;;3.13;46.59
27958;BME280;15295;42.658;23.374;2024-01-15T04:29:56;93802.88;;;3.01;46.33
27958;BME280;15295;42.658;23.374;2024-01-15T04:32:22;93821.53;;;3.17;46.54
27958;BME280;15295;42.658;23.374;2024-01-15T04:34:48;93830.81;;;3.16;46.38
27958;BME280;15295;42.658;23.374;2024-01-15T04:37:13;93829.31;;;3.22;46.98
27958;BME280;15295;42.658;23.374;2024-01-15T04:39:39;93827.50;;;3.29;46.84
27958;BME280;15295;42.658;23.374;2024-01-15T04:42:13;93813.50;;;3.20;46.79
27958;BME280;15295;42.658;23.374;2024-01-15T04:44:39;93817.69;;;3.14;47.08
27958;BME280;15295;42.658;23.374;2024-01-15T04:47:04;93819.31;;;3.22;47.13
27958;BME280;15295;42.658;23.374;2024-01-15T04:49:30;93819.41;;;3.29;47.17
27958;BME280;15295;42.658;23.374;2024-01-15T04:55:17;93808.09;;;3.20;47.40
27958;BME280;15295;42.658;23.374;2024-01-15T04:57:52;93799.25;;;3.23;47.26
27958;BME280;15295;42.658;23.374;2024-01-15T05:00:18;93796.50;;;3.16;47.25
27958;BME280;15295;42.658;23.374;2024-01-15T05:02:44;93788.81;;;3.18;47.20
27958;BME280;15295;42.658;23.374;2024-01-15T05:05:10;93795.78;;;3.23;47.48
27958;BME280;15295;42.658;23.374;2024-01-15T05:07:38;93789.13;;;3.13;47.40
27958;BME280;15295;42.658;23.374;2024-01-15T05:10:04;93808.59;;;3.29;47.37
27958;BME280;15295;42.658;23.374;2024-01-15T05:12:38;93788.16;;;3.32;47.38
27958;BME280;15295;42.658;23.374;2024-01-15T05:15:03;93787.53;;;3.45;47.40
27958;BME280;15295;42.658;23.374;2024-01-15T05:17:29;93784.03;;;3.45;47.39
27958;BME280;15295;42.658;23.374;2024-01-15T05:19:55;93774.06;;;3.49;47.13
27958;BME280;15295;42.658;23.374;2024-01-15T05:22:21;93784.81;;;3.42;47.30
27958;BME280;15295;42.658;23.374;2024-01-15T05:24:49;93775.13;;;3.41;47.07
27958;BME280;15295;42.658;23.374;2024-01-15T05:27:15;93777.63;;;3.60;46.99
27958;BME280;15295;42.658;23.374;2024-01-15T05:29:40;93798.03;;;3.54;46.95
27958;BME280;15295;42.658;23.374;2024-01-15T05:32:06;93790.25;;;3.49;46.53
27958;BME280;15295;42.658;23.374;2024-01-15T05:34:31;93776.53;;;3.28;46.47
27958;BME280;15295;42.658;23.374;2024-01-15T05:36:57;93782.75;;;3.32;46.98
27958;BME280;15295;42.658;23.374;2024-01-15T05:39:23;93773.41;;;3.22;46.83
27958;BME280;15295;42.658;23.374;2024-01-15T05:41:48;93782.09;;;3.05;46.98
27958;BME280;15295;42.658;23.374;2024-01-15T05:44:14;93789.78;;;3.03;46.91
27958;BME280;15295;42.658;23.374;2024-01-15T05:46:39;93775.78;;;2.94;47.19
27958;BME280;15295;42.658;23.374;2024-01-15T05:49:05;93771.91;;;2.91;46.98
27958;BME280;15295;42.658;23.374;2024-01-15T05:51:30;93753.25;;;2.76;47.05
27958;BME280;15295;42.658;23.374;2024-01-15T05:53:56;93772.97;;;2.83;47.08
27958;BME280;15295;42.658;23.374;2024-01-15T05:56:21;93765.19;;;2.78;47.16
27958;BME280;15295;42.658;23.374;2024-01-15T05:58:47;93755.50;;;2.74;47.36
27958;BME280;15295;42.658;23.374;2024-01-15T06:01:12;93752.53;;;2.82;47.76
27958;BME280;15295;42.658;23.374;2024-01-15T06:03:38;93766.75;;;2.79;48.04
27958;BME280;15295;42.658;23.374;2024-01-15T06:06:03;93767.97;;;2.82;48.11
27958;BME280;15295;42.658;23.374;2024-01-15T06:08:29;93788.88;;;2.92;48.23
27958;BME280;15295;42.658;23.374;2024-01-15T06:10:56;93786.59;;;2.94;48.25
27958;BME280;15295;42.658;23.374;2024-01-15T06:13:22;93787.81;;;3.00;48.17
27958;BME280;15295;42.658;23.374;2024-01-15T06:15:47;93777.41;;;2.98;47.95
27958;BME280;15295;42.658;23.374;2024-01-15T06:18:13;93776.38;;;3.10;48.26
27958;BME280;15295;42.658;23.374;2024-01-15T06:20:39;93767.16;;;3.14;48.19
27958;BME280;15295;42.658;23.374;2024-01-15T06:23:05;93757.66;;;3.28;48.03
27958;BME280;15295;42.658;23.374;2024-01-15T06:25:30;93752.31;;;3.35;48.12
27958;BME280;15295;42.658;23.374;2024-01-15T06:27:55;93773.31;;;3.52;48.06
27958;BME280;15295;42.658;23.374;2024-01-15T06:30:21;93760.28;;;3.61;47.71
27958;BME280;15295;42.658;23.374;2024-01-15T06:32:47;93762.22;;;3.60;47.63
27958;BME280;15295;42.658;23.374;2024-01-15T06:35:12;93762.59;;;3.62;47.58
27958;BME280;15295;42.658;23.374;2024-01-15T06:37:38;93772.31;;;3.67;47.54
27958;BME280;15295;42.658;23.374;2024-01-15T06:40:03;93765.34;;;3.66;47.84
27958;BME280;15295;42.658;23.374;2024-01-15T06:42:31;93770.88;;;3.83;47.50
27958;BME280;15295;42.658;23.374;2024-01-15T06:44:57;93760.56;;;3.96;47.53
27958;BME280;15295;42.658;23.374;2024-01-15T06:47:23;93759.03;;;3.95;47.32
27958;BME280;15295;42.658;23.374;2024-01-15T06:49:49;93788.47;;;4.11;46.91
27958;BME280;15295;42.658;23.374;2024-01-15T06:52:15;93770.31;;;4.08;46.60
27958;BME280;15295;42.658;23.374;2024-01-15T06:54:41;93782.66;;;4.05;46.77
27958;BME280;15295;42.658;23.374;2024-01-15T06:57:06;93789.28;;;4.15;46.91
27958;BME280;15295;42.658;23.374;2024-01-15T06:59:33;93779.63;;;4.14;47.20
27958;BME280;15295;42.658;23.374;2024-01-15T07:01:58;93794.78;;;4.25;47.15
27958;BME280;15295;42.658;23.374;2024-01-15T07:04:24;93779.69;;;4.28;46.93
27958;BME280;15295;42.658;23.374;2024-01-15T07:06:50;93793.28;;;4.35;46.86
27958;BME280;15295;42.658;23.374;2024-01-15T07:09:17;93778.97;;;4.31;46.52
27958;BME280;15295;42.658;23.374;2024-01-15T07:11:47;93775.44;;;4.23;46.91
27958;BME280;15295;42.658;23.374;2024-01-15T07:14:12;93771.63;;;4.31;46.67
27958;BME280;15295;42.658;23.374;2024-01-15T07:16:38;93773.56;;;4.34;46.76
27958;BME280;15295;42.658;23.374;2024-01-15T07:19:04;93784.84;;;4.43;46.52
27958;BME280;15295;42.658;23.374;2024-01-15T07:21:29;93786.03;;;4.49;46.69
27958;BME280;15295;42.658;23.374;2024-01-15T07:23:55;93784.94;;;4.61;46.63
27958;BME280;15295;42.658;23.374;2024-01-15T07:26:21;93785.00;;;4.68;46.14
27958;BME280;15295;42.658;23.374;2024-01-15T07:28:46;93783.47;;;4.74;46.26
27958;BME280;15295;42.658;23.374;2024-01-15T07:31:12;93773.03;;;4.76;46.38
27958;BME280;15295;42.658;23.374;2024-01-15T07:33:38;93763.38;;;4.79;46.11
27958;BME280;15295;42.658;23.374;2024-01-15T07:36:03;93762.66;;;4.85;46.34
27958;BME280;15295;42.658;23.374;2024-01-15T07:38:29;93766.53;;;4.95;46.31
27958;BME280;15295;42.658;23.374;2024-01-15T07:40:54;93772.00;;;5.02;45.68
27958;BME280;15295;42.658;23.374;2024-01-15T07:43:20;93796.38;;;5.05;45.72
27958;BME280;15295;42.658;23.374;2024-01-15T07:45:46;93774.72;;;5.09;45.63
27958;BME280;15295;42.658;23.374;2024-01-15T07:48:11;93782.50;;;5.21;45.64
27958;BME280;15295;42.658;23.374;2024-01-15T07:50:37;93779.75;;;5.14;45.30
27958;BME280;15295;42.658;23.374;2024-01-15T07:53:03;93797.59;;;5.29;45.37
27958;BME280;15295;42.658;23.374;2024-01-15T07:55:29;93764.28;;;5.14;44.94
27958;BME280;15295;42.658;23.374;2024-01-15T07:57:54;93782.13;;;5.33;44.62
27958;BME280;15295;42.658;23.374;2024-01-15T08:00:24;93789.09;;;5.23;44.43
27958;BME280;15295;42.658;23.374;2024-01-15T08:02:50;93797.59;;;5.32;44.71
27958;BME280;15295;42.658;23.374;2024-01-15T08:05:16;93712.44;;;5.12;44.79
27958;BME280;15295;42.658;23.374;2024-01-15T08:07:42;93754.19;;;4.94;45.09
27958;BME280;15295;42.658;23.374;2024-01-15T08:10:07;93765.00;;;4.97;44.46
27958;BME280;15295;42.658;23.374;2024-01-15T08:12:33;93745.22;;;4.83;43.83
27958;BME280;15295;42.658;23.374;2024-01-15T08:14:58;93765.72;;;4.84;44.46
27958;BME280;15295;42.658;23.374;2024-01-15T08:17:24;93714.66;;;4.79;44.29
27958;BME280;15295;42.658;23.374;2024-01-15T08:19:54;93741.41;;;4.98;43.92
27958;BME280;15295;42.658;23.374;2024-01-15T08:22:19;93761.22;;;5.23;44.30
27958;BME280;15295;42.658;23.374;2024-01-15T08:24:45;93765.94;;;5.47;43.96
27958;BME280;15295;42.658;23.374;2024-01-15T08:27:10;93761.28;;;5.51;43.68
27958;BME280;15295;42.658;23.374;2024-01-15T08:29:36;93768.66;;;5.75;44.01
27958;BME280;15295;42.658;23.374;2024-01-15T08:32:02;93766.78;;;5.97;44.19
27958;BME280;15295;42.658;23.374;2024-01-15T08:34:27;93755.13;;;6.24;44.28
27958;BME280;15295;42.658;23.374;2024-01-15T08:36:53;93743.06;;;6.50;43.87
27958;BME280;15295;42.658;23.374;2024-01-15T08:39:18;93764.72;;;6.82;42.03
27958;BME280;15295;42.658;23.374;2024-01-15T08:41:44;93748.31;;;7.10;42.66
27958;BME280;15295;42.658;23.374;2024-01-15T08:44:12;93745.63;;;7.75;41.76
27958;BME280;15295;42.658;23.374;2024-01-15T08:46:38;93752.41;;;8.49;41.67
27958;BME280;15295;42.658;23.374;2024-01-15T08:49:04;93745.38;;;9.22;40.25
27958;BME280;15295;42.658;23.374;2024-01-15T08:51:29;93727.88;;;10.03;38.30
27958;BME280;15295;42.658;23.374;2024-01-15T08:53:56;93735.44;;;10.65;37.67
27958;BME280;15295;42.658;23.374;2024-01-15T08:56:22;93737.53;;;11.20;36.63
27958;BME280;15295;42.658;23.374;2024-01-15T08:58:47;93745.28;;;11.61;35.11
27958;BME280;15295;42.658;23.374;2024-01-15T09:01:13;93726.50;;;11.99;34.68
27958;BME280;15295;42.658;23.374;2024-01-15T09:03:39;93723.06;;;12.43;33.09
27958;BME280;15295;42.658;23.374;2024-01-15T09:06:07;93730.75;;;13.09;32.72
27958;BME280;15295;42.658;23.374;2024-01-15T09:08:32;93724.78;;;13.55;32.20
27958;BME280;15295;42.658;23.374;2024-01-15T09:10:58;93690.22;;;13.96;31.04
27958;BME280;15295;42.658;23.374;2024-01-15T09:13:23;93698.75;;;14.48;30.30
27958;BME280;15295;42.658;23.374;2024-01-15T09:15:49;93683.28;;;14.76;29.71
27958;BME280;15295;42.658;23.374;2024-01-15T09:18:14;93693.75;;;15.02;29.46
27958;BME280;15295;42.658;23.374;2024-01-15T09:20:40;93662.41;;;14.65;29.23
27958;BME280;15295;42.658;23.374;2024-01-15T09:23:05;93653.19;;;14.00;29.74
27958;BME280;15295;42.658;23.374;2024-01-15T09:25:33;93663.94;;;13.57;29.70
27958;BME280;15295;42.658;23.374;2024-01-15T09:27:59;93650.16;;;13.06;30.46
27958;BME280;15295;42.658;23.374;2024-01-15T09:30:24;93681.47;;;12.77;31.09
27958;BME280;15295;42.658;23.374;2024-01-15T09:32:49;93636.19;;;12.27;31.77
27958;BME280;15295;42.658;23.374;2024-01-15T09:35:15;93666.25;;;11.99;31.98
27958;BME280;15295;42.658;23.374;2024-01-15T09:37:41;93654.00;;;11.71;32.74
27958;BME280;15295;42.658;23.374;2024-01-15T09:40:08;93663.00;;;11.52;32.61
27958;BME280;15295;42.658;23.374;2024-01-15T09:42:38;93634.22;;;11.28;33.25
27958;BME280;15295;42.658;23.374;2024-01-15T09:45:04;93653.69;;;11.14;33.30
27958;BME280;15295;42.658;23.374;2024-01-15T09:47:30;93640.19;;;10.87;33.12
27958;BME280;15295;42.658;23.374;2024-01-15T09:49:56;93625.13;;;10.59;33.39
27958;BME280;15295;42.658;23.374;2024-01-15T09:52:24;93638.34;;;10.41;34.14
27958;BME280;15295;42.658;23.374;2024-01-15T09:54:50;93608.50;;;10.31;34.32
27958;BME280;15295;42.658;23.374;2024-01-15T09:57:16;93617.88;;;10.06;34.16
27958;BME280;15295;42.658;23.374;2024-01-15T09:59:42;93601.16;;;9.81;34.54
27958;BME280;15295;42.658;23.374;2024-01-15T10:02:09;93593.28;;;9.64;34.99
27958;BME280;15295;42.658;23.374;2024-01-15T10:04:39;93586.16;;;9.47;34.90
27958;BME280;15295;42.658;23.374;2024-01-15T10:07:06;93595.72;;;9.31;35.32
27958;BME280;15295;42.658;23.374;2024-01-15T10:09:33;93571.66;;;9.26;35.38
27958;BME280;15295;42.658;23.374;2024-01-15T10:11:59;93627.66;;;9.04;36.02
27958;BME280;15295;42.658;23.374;2024-01-15T10:14:24;93589.25;;;8.95;36.22
27958;BME280;15295;42.658;23.374;2024-01-15T10:16:50;93580.16;;;8.75;36.34
27958;BME280;15295;42.658;23.374;2024-01-15T10:19:15;93587.06;;;8.83;36.55
27958;BME280;15295;42.658;23.374;2024-01-15T10:21:41;93573.78;;;8.59;36.81
27958;BME280;15295;42.658;23.374;2024-01-15T10:24:06;93565.03;;;8.44;37.00
27958;BME280;15295;42.658;23.374;2024-01-15T10:26:32;93562.78;;;8.35;37.13
27958;BME280;15295;42.658;23.374;2024-01-15T10:28:58;93567.59;;;8.21;36.94
27958;BME280;15295;42.658;23.374;2024-01-15T10:31:25;93566.13;;;8.13;37.25
27958;BME280;15295;42.658;23.374;2024-01-15T10:33:51;93545.13;;;8.13;37.07
27958;BME280;15295;42.658;23.374;2024-01-15T10:36:17;93528.03;;;8.13;37.32
27958;BME280;15295;42.658;23.374;2024-01-15T10:38:43;93542.75;;;8.19;37.44
27958;BME280;15295;42.658;23.374;2024-01-15T10:41:09;93539.22;;;8.25;37.45
27958;BME280;15295;42.658;23.374;2024-01-15T10:43:35;93522.88;;;8.25;37.36
27958;BME280;15295;42.658;23.374;2024-01-15T10:46:01;93558.50;;;8.38;37.41
27958;BME280;15295;42.658;23.374;2024-01-15T10:48:26;93536.34;;;8.36;37.15
27958;BME280;15295;42.658;23.374;2024-01-15T10:50:54;93544.53;;;8.36;37.34
27958;BME280;15295;42.658;23.374;2024-01-15T10:53:20;93535.34;;;8.53;37.13
27958;BME280;15295;42.658;23.374;2024-01-15T10:55:47;93540.66;;;8.64;37.00
27958;BME280;15295;42.658;23.374;2024-01-15T10:58:16;93531.25;;;8.68;36.84
27958;BME280;15295;42.658;23.374;2024-01-15T11:00:43;93512.56;;;8.70;36.82
27958;BME280;15295;42.658;23.374;2024-01-15T11:03:09;93511.63;;;8.80;36.59
27958;BME280;15295;42.658;23.374;2024-01-15T11:05:43;93527.41;;;8.92;36.86
27958;BME280;15295;42.658;23.374;2024-01-15T11:08:09;93506.84;;;8.88;36.88
27958;BME280;15295;42.658;23.374;2024-01-15T11:13:14;93506.66;;;8.98;36.68
27958;BME280;15295;42.658;23.374;2024-01-15T11:15:56;93515.88;;;9.08;36.71
27958;BME280;15295;42.658;23.374;2024-01-15T11:18:22;93502.19;;;9.11;36.73
27958;BME280;15295;42.658;23.374;2024-01-15T11:23:43;93487.31;;;9.16;36.63
27958;BME280;15295;42.658;23.374;2024-01-15T11:29:07;93467.88;;;9.37;37.04
27958;BME280;15295;42.658;23.374;2024-01-15T11:34:09;93483.31;;;9.67;36.68
27958;BME280;15295;42.658;23.374;2024-01-15T11:37:01;93490.47;;;9.80;36.55
27958;BME280;15295;42.658;23.374;2024-01-15T11:41:56;93463.97;;;9.81;36.61
27958;BME280;15295;42.658;23.374;2024-01-15T11:44:22;93460.75;;;9.86;36.48
27958;BME280;15295;42.658;23.374;2024-01-15T11:47:09;93479.38;;;9.91;36.19
27958;BME280;15295;42.658;23.374;2024-01-15T11:52:18;93465.38;;;9.89;35.97
27958;BME280;15295;42.658;23.374;2024-01-15T11:55:00;93457.44;;;9.94;36.26
27958;BME280;15295;42.658;23.374;2024-01-15T12:00:08;93455.03;;;10.00;36.01
27958;BME280;15295;42.658;23.374;2024-01-15T12:02:34;93454.47;;;10.08;36.01
27958;BME280;15295;42.658;23.374;2024-01-15T12:05:00;93421.38;;;9.87;35.90
27958;BME280;15295;42.658;23.374;2024-01-15T12:07:25;93450.50;;;10.13;35.90
27958;BME280;15295;42.658;23.374;2024-01-15T12:09:51;93431.44;;;9.90;36.07
27958;BME280;15295;42.658;23.374;2024-01-15T12:12:25;93451.44;;;10.03;36.14
27958;BME280;15295;42.658;23.374;2024-01-15T12:14:52;93416.81;;;10.00;36.24
27958;BME280;15295;42.658;23.374;2024-01-15T12:17:18;93409.31;;;9.65;36.55
27958;BME280;15295;42.658;23.374;2024-01-15T12:19:44;93436.91;;;9.90;36.87
27958;BME280;15295;42.658;23.374;2024-01-15T12:22:09;93434.03;;;10.17;36.43
27958;BME280;15295;42.658;23.374;2024-01-15T12:24:35;93442.22;;;10.17;36.64
27958;BME280;15295;42.658;23.374;2024-01-15T12:27:02;93427.06;;;10.16;36.54
27958;BME280;15295;42.658;23.374;2024-01-15T12:29:27;93414.44;;;10.22;36.58
27958;BME280;15295;42.658;23.374;2024-01-15T12:31:53;93422.03;;;10.50;36.38
27958;BME280;15295;42.658;23.374;2024-01-15T12:34:19;93419.50;;;10.75;35.43
27958;BME280;15295;42.658;23.374;2024-01-15T12:36:46;93435.44;;;10.76;35.29
27958;BME280;15295;42.658;23.374;2024-01-15T12:39:12;93430.13;;;10.69;35.79
27958;BME280;15295;42.658;23.374;2024-01-15T12:41:38;93427.06;;;10.67;36.17
27958;BME280;15295;42.658;23.374;2024-01-15T12:44:04;93420.75;;;10.70;35.91
27958;BME280;15295;42.658;23.374;2024-01-15T12:46:30;93407.09;;;10.70;35.72
27958;BME280;15295;42.658;23.374;2024-01-15T12:48:56;93407.34;;;10.76;35.74
27958;BME280;15295;42.658;23.374;2024-01-15T12:51:26;93408.81;;;10.80;35.75
27958;BME280;15295;42.658;23.374;2024-01-15T12:53:52;93404.47;;;10.83;35.62
27958;BME280;15295;42.658;23.374;2024-01-15T12:56:18;93411.03;;;10.85;35.74
27958;BME280;15295;42.658;23.374;2024-01-15T12:58:43;93397.00;;;10.67;35.89
27958;BME280;15295;42.658;23.374;2024-01-15T13:01:09;93391.97;;;10.66;36.08
27958;BME280;15295;42.658;23.374;2024-01-15T13:03:35;93393.94;;;10.65;35.96
27958;BME280;15295;42.658;23.374;2024-01-15T13:06:01;93398.38;;;10.59;36.19
27958;BME280;15295;42.658;23.374;2024-01-15T13:08:26;93401.09;;;10.59;36.39
27958;BME280;15295;42.658;23.374;2024-01-15T13:10:55;93385.22;;;10.54;36.58
27958;BME280;15295;42.658;23.374;2024-01-15T13:13:22;93375.84;;;10.55;36.80
27958;BME280;15295;42.658;23.374;2024-01-15T13:15:47;93374.22;;;10.58;36.78